METAR Data
IDs: Format: Raw Decoded Include TAF

Data at: 1258 UTC 20 Oct 2021

LIVR 201155Z 12013KT CAVOK 09/01 Q1026 RMK SCT SCT190 MON LIB VIS MIN 9999